createdAt,value
2018-03-30T00:00:31.756Z,29.65
2018-03-30T00:03:00.584Z,26.00
2018-03-30T00:05:29.920Z,28.23
2018-03-30T00:07:58.734Z,27.48
2018-03-30T00:10:27.536Z,27.00
2018-03-30T00:12:56.348Z,25.40
2018-03-30T00:15:26.144Z,24.50
2018-03-30T00:17:54.948Z,28.40
2018-03-30T00:20:23.743Z,26.27
2018-03-30T00:22:52.531Z,24.55
2018-03-30T00:25:21.344Z,25.12
2018-03-30T00:27:50.156Z,22.52
2018-03-30T00:30:19.716Z,20.33
2018-03-30T00:32:48.507Z,19.75
2018-03-30T00:35:17.318Z,25.88
2018-03-30T00:37:47.024Z,19.90
2018-03-30T00:40:15.827Z,21.62
2018-03-30T00:42:44.630Z,22.20
2018-03-30T00:45:13.960Z,20.62
2018-03-30T00:47:42.887Z,17.73
2018-03-30T00:50:13.076Z,18.87
2018-03-30T00:52:41.872Z,19.90
2018-03-30T00:55:10.672Z,23.62
2018-03-30T00:57:39.486Z,18.83
2018-03-30T01:00:07.816Z,16.10
2018-03-30T01:02:37.139Z,28.27
2018-03-30T01:05:05.943Z,21.12
2018-03-30T01:07:34.753Z,18.08
2018-03-30T01:10:03.555Z,22.15
2018-03-30T01:12:32.346Z,18.30
2018-03-30T01:15:01.140Z,22.62
2018-03-30T01:17:29.949Z,22.73
2018-03-30T01:19:59.518Z,24.25
2018-03-30T01:22:28.312Z,25.80
2018-03-30T01:24:57.106Z,23.90
2018-03-30T01:27:25.916Z,23.42
2018-03-30T01:29:55.257Z,28.20
2018-03-30T01:32:24.072Z,23.85
2018-03-30T01:34:52.868Z,22.23
2018-03-30T01:37:21.674Z,21.02
2018-03-30T01:39:50.483Z,22.83
2018-03-30T01:42:20.037Z,23.30
2018-03-30T01:44:48.836Z,20.95
2018-03-30T01:47:17.631Z,22.33
2018-03-30T01:49:46.428Z,21.92
2018-03-30T01:52:15.228Z,22.33
2018-03-30T01:54:44.023Z,23.02
2018-03-30T01:57:12.813Z,23.98
2018-03-30T01:59:42.379Z,22.75
2018-03-30T02:02:11.170Z,29.85
2018-03-30T02:04:39.967Z,29.77
2018-03-30T02:07:08.775Z,22.27
2018-03-30T02:09:37.580Z,21.75
2018-03-30T02:12:07.153Z,23.17
2018-03-30T02:14:35.951Z,20.15
2018-03-30T02:17:04.410Z,21.90
2018-03-30T02:19:33.219Z,24.23
2018-03-30T02:22:02.016Z,30.75
2018-03-30T02:24:30.819Z,21.12
2018-03-30T02:26:59.635Z,23.20
2018-03-30T02:29:29.197Z,24.87
2018-03-30T02:31:57.982Z,21.92
2018-03-30T02:34:26.790Z,21.48
2018-03-30T02:36:55.588Z,22.98
2018-03-30T02:39:24.411Z,21.42
2018-03-30T02:41:53.921Z,20.02
2018-03-30T02:44:22.717Z,23.77
2018-03-30T02:46:51.519Z,20.50
2018-03-30T02:49:20.352Z,17.08
2018-03-30T02:51:49.185Z,18.33
2018-03-30T02:54:18.000Z,18.95
2018-03-30T02:56:46.804Z,20.20
2018-03-30T02:59:15.609Z,18.70
2018-03-30T03:01:44.440Z,15.88
2018-03-30T03:04:13.253Z,17.52
2018-03-30T03:06:42.073Z,16.85
2018-03-30T03:09:10.908Z,15.50
2018-03-30T03:11:39.712Z,19.08
2018-03-30T03:14:08.292Z,17.02
2018-03-30T03:16:37.086Z,16.40
2018-03-30T03:19:05.887Z,15.52
2018-03-30T03:21:35.308Z,14.30
2018-03-30T03:27:04.143Z,15.13
2018-03-30T03:29:32.952Z,15.48
2018-03-30T03:32:02.527Z,15.93
2018-03-30T03:34:31.324Z,14.07
2018-03-30T03:37:00.127Z,13.55
2018-03-30T03:39:29.714Z,16.42
2018-03-30T03:41:58.716Z,16.20
2018-03-30T03:44:27.515Z,13.88
2018-03-30T03:46:57.106Z,14.52
2018-03-30T03:49:25.908Z,15.35
2018-03-30T03:51:55.481Z,14.48
2018-03-30T03:54:24.287Z,15.48
2018-03-30T03:56:53.868Z,16.62
2018-03-30T03:59:23.207Z,17.25
2018-03-30T04:01:52.020Z,15.25
2018-03-30T04:04:21.591Z,13.88
2018-03-30T04:06:50.407Z,16.58
2018-03-30T04:09:19.980Z,14.65
2018-03-30T04:11:48.792Z,15.13
2018-03-30T04:14:17.593Z,14.85
2018-03-30T04:16:46.403Z,13.90
2018-03-30T04:19:15.224Z,17.73
2018-03-30T04:21:44.024Z,13.60
2018-03-30T04:24:12.599Z,15.95
2018-03-30T04:26:41.410Z,14.77
2018-03-30T04:29:09.882Z,15.70
2018-03-30T04:31:38.691Z,17.35
2018-03-30T04:34:07.506Z,16.52
2018-03-30T04:36:37.078Z,15.38
2018-03-30T04:39:05.990Z,15.50
2018-03-30T04:41:34.808Z,14.85
2018-03-30T04:44:03.614Z,17.73
2018-03-30T04:46:32.087Z,14.98
2018-03-30T04:49:00.879Z,17.75
2018-03-30T04:51:29.690Z,17.40
2018-03-30T04:53:58.503Z,16.87
2018-03-30T04:56:27.072Z,17.60
2018-03-30T04:58:55.882Z,14.63
2018-03-30T05:01:24.460Z,18.27
2018-03-30T05:03:53.880Z,18.12
2018-03-30T05:06:22.681Z,16.30
2018-03-30T05:08:52.254Z,16.95
2018-03-30T05:11:21.055Z,16.40
2018-03-30T05:13:49.871Z,17.15
2018-03-30T05:16:19.449Z,17.55
2018-03-30T05:18:48.265Z,17.08
2018-03-30T05:21:17.634Z,17.50
2018-03-30T05:23:46.447Z,15.65
2018-03-30T05:26:16.759Z,15.52
2018-03-30T05:28:45.564Z,16.25
2018-03-30T05:31:14.376Z,17.12
2018-03-30T05:33:43.939Z,18.48
2018-03-30T05:36:12.762Z,14.57
2018-03-30T05:38:41.563Z,16.95
2018-03-30T05:41:11.128Z,16.98
2018-03-30T05:43:39.931Z,17.12
2018-03-30T05:46:08.395Z,17.30
2018-03-30T05:48:36.971Z,17.52
2018-03-30T05:51:05.452Z,18.30
2018-03-30T05:53:34.313Z,17.65
2018-03-30T05:56:03.120Z,23.10
2018-03-30T05:58:31.928Z,17.77
2018-03-30T06:01:00.735Z,16.50
2018-03-30T06:03:29.546Z,16.15
2018-03-30T06:05:59.123Z,18.40
2018-03-30T06:08:27.929Z,17.05
2018-03-30T06:10:56.395Z,17.10
2018-03-30T06:13:25.272Z,18.25
2018-03-30T06:15:54.215Z,18.40
2018-03-30T06:18:23.466Z,18.95
2018-03-30T06:20:51.963Z,15.50
2018-03-30T06:23:20.767Z,18.62
2018-03-30T06:25:49.569Z,20.55
2018-03-30T06:28:18.382Z,21.37
2018-03-30T06:30:47.500Z,17.15
2018-03-30T06:33:16.297Z,17.20
2018-03-30T06:35:45.100Z,17.05
2018-03-30T06:38:13.962Z,20.65
2018-03-30T06:40:42.916Z,15.77
2018-03-30T06:43:11.715Z,16.98
2018-03-30T06:45:41.288Z,19.90
2018-03-30T06:48:10.083Z,21.17
2018-03-30T06:50:38.895Z,19.50
2018-03-30T06:53:07.704Z,17.12
2018-03-30T06:55:37.288Z,16.42
2018-03-30T06:58:06.099Z,19.15
2018-03-30T07:00:35.684Z,18.02
2018-03-30T07:03:04.491Z,17.95
2018-03-30T07:05:34.068Z,16.58
2018-03-30T07:08:02.886Z,19.70
2018-03-30T07:10:31.884Z,21.02
2018-03-30T07:13:01.451Z,18.05
2018-03-30T07:15:30.271Z,18.73
2018-03-30T07:17:59.118Z,19.48
2018-03-30T07:20:27.941Z,16.95
2018-03-30T07:22:56.527Z,18.37
2018-03-30T07:25:25.344Z,16.65
2018-03-30T07:27:54.247Z,15.40
2018-03-30T07:30:23.071Z,17.35
2018-03-30T07:32:53.535Z,17.85
2018-03-30T07:35:23.123Z,15.90
2018-03-30T07:37:51.941Z,15.55
2018-03-30T07:40:23.147Z,21.10
2018-03-30T07:42:52.205Z,18.25
2018-03-30T07:45:21.040Z,17.65
2018-03-30T07:47:49.847Z,19.70
2018-03-30T07:50:19.615Z,19.58
2018-03-30T07:52:48.406Z,18.60
2018-03-30T07:55:17.220Z,17.90
2018-03-30T07:57:46.032Z,18.95
2018-03-30T08:00:14.844Z,21.77
2018-03-30T08:02:44.408Z,16.85
2018-03-30T08:05:13.206Z,16.20
2018-03-30T08:07:42.011Z,16.90
2018-03-30T08:10:10.811Z,20.42
2018-03-30T08:12:40.237Z,17.52
2018-03-30T08:15:09.063Z,16.98
2018-03-30T08:17:37.859Z,16.55
2018-03-30T08:20:09.095Z,17.45
2018-03-30T08:22:37.583Z,18.00
2018-03-30T08:25:07.215Z,17.65
2018-03-30T08:27:36.020Z,19.37
2018-03-30T08:30:04.939Z,16.20
2018-03-30T08:32:34.458Z,21.00
2018-03-30T08:35:03.053Z,18.12
2018-03-30T08:37:31.865Z,15.32
2018-03-30T08:40:00.683Z,16.50
2018-03-30T08:42:30.252Z,19.00
2018-03-30T08:44:59.064Z,16.52
2018-03-30T08:47:28.509Z,16.98
2018-03-30T08:49:56.994Z,18.33
2018-03-30T08:52:25.568Z,18.02
2018-03-30T08:54:54.375Z,16.17
2018-03-30T08:57:23.192Z,17.10
2018-03-30T08:59:52.743Z,18.15
2018-03-30T09:02:22.615Z,16.83
2018-03-30T09:04:51.436Z,17.58
2018-03-30T09:07:20.756Z,14.87
2018-03-30T09:09:51.031Z,17.85
2018-03-30T09:12:19.839Z,16.98
2018-03-30T09:14:49.812Z,15.00
2018-03-30T09:17:18.871Z,13.43
2018-03-30T09:19:49.299Z,12.48
2018-03-30T09:22:17.947Z,11.32
2018-03-30T09:24:46.431Z,9.93
2018-03-30T09:27:15.984Z,11.32
2018-03-30T09:29:49.773Z,7.90
2018-03-30T09:32:20.248Z,8.30
2018-03-30T09:34:49.260Z,6.87
2018-03-30T09:37:18.054Z,6.32
2018-03-30T09:39:47.095Z,11.10
2018-03-30T09:42:17.297Z,12.13
2018-03-30T09:44:46.490Z,6.97
2018-03-30T09:47:16.196Z,7.50
2018-03-30T09:49:44.994Z,6.32
2018-03-30T09:52:15.216Z,8.85
2018-03-30T09:54:44.035Z,7.30
2018-03-30T09:57:13.603Z,14.48
2018-03-30T09:59:43.355Z,12.50
2018-03-30T10:02:12.696Z,9.68
2018-03-30T10:04:45.077Z,11.27
2018-03-30T10:07:13.884Z,9.38
2018-03-30T10:09:42.681Z,7.55
2018-03-30T10:12:11.520Z,11.68
2018-03-30T10:14:40.329Z,11.10
2018-03-30T10:17:09.148Z,9.85
2018-03-30T10:19:37.944Z,8.95
2018-03-30T10:22:06.747Z,10.43
2018-03-30T10:24:35.557Z,10.73
2018-03-30T10:27:04.788Z,12.77
2018-03-30T10:29:33.623Z,16.92
2018-03-30T10:32:02.467Z,11.05
2018-03-30T10:34:31.301Z,12.00
2018-03-30T10:37:00.909Z,13.48
2018-03-30T10:39:29.733Z,10.35
2018-03-30T10:41:58.554Z,14.30
2018-03-30T10:44:28.402Z,12.30
2018-03-30T10:46:57.225Z,12.82
2018-03-30T10:49:26.804Z,11.27
2018-03-30T10:51:56.583Z,17.08
2018-03-30T10:54:25.408Z,12.90
2018-03-30T10:56:54.241Z,12.13
2018-03-30T10:59:23.060Z,10.68
2018-03-30T11:01:51.892Z,11.63
2018-03-30T11:04:21.583Z,13.73
2018-03-30T11:06:51.184Z,12.93
2018-03-30T11:09:19.999Z,13.15
2018-03-30T11:12:06.279Z,13.02
2018-03-30T11:17:20.471Z,13.02
2018-03-30T11:22:34.702Z,17.15
2018-03-30T11:25:03.527Z,12.77
2018-03-30T11:27:33.098Z,16.50
2018-03-30T11:30:01.945Z,15.13
2018-03-30T11:32:30.795Z,14.82
2018-03-30T11:34:59.617Z,14.10
2018-03-30T11:37:29.189Z,13.20
2018-03-30T11:39:57.993Z,14.68
2018-03-30T11:42:26.813Z,13.80
2018-03-30T11:44:55.640Z,13.50
2018-03-30T11:47:24.462Z,16.77
2018-03-30T11:49:56.252Z,13.60
2018-03-30T11:52:25.067Z,14.70
2018-03-30T11:54:53.885Z,13.50
2018-03-30T11:57:24.927Z,14.80
2018-03-30T11:59:53.457Z,15.50
2018-03-30T12:02:22.022Z,11.90
2018-03-30T12:05:13.672Z,11.80
2018-03-30T12:07:42.514Z,11.38
2018-03-30T12:10:20.395Z,13.82
2018-03-30T12:12:49.217Z,12.77
2018-03-30T12:15:18.815Z,13.23
2018-03-30T12:18:12.844Z,12.30
2018-03-30T12:20:41.675Z,12.05
2018-03-30T12:23:10.916Z,13.52
2018-03-30T12:25:40.510Z,14.57
2018-03-30T12:28:09.342Z,13.35
2018-03-30T12:30:38.167Z,11.70
2018-03-30T12:33:15.117Z,10.50
2018-03-30T12:35:45.552Z,11.55
2018-03-30T12:44:45.063Z,11.77
2018-03-30T12:47:14.639Z,9.65
2018-03-30T12:49:43.460Z,14.13
2018-03-30T12:52:13.751Z,11.85
2018-03-30T12:54:42.571Z,16.73
2018-03-30T12:57:12.143Z,17.02
2018-03-30T12:59:40.932Z,9.40
2018-03-30T13:02:09.747Z,12.30
2018-03-30T13:04:38.560Z,10.32
2018-03-30T13:07:07.380Z,13.95
2018-03-30T13:09:36.966Z,11.40
2018-03-30T13:12:05.447Z,13.80
2018-03-30T13:14:34.238Z,10.57
2018-03-30T13:17:03.043Z,12.07
2018-03-30T13:19:31.855Z,10.52
2018-03-30T13:22:00.670Z,21.58
2018-03-30T13:24:29.472Z,10.98
2018-03-30T13:26:58.053Z,12.35
2018-03-30T13:29:26.856Z,10.23
2018-03-30T13:31:56.421Z,11.90
2018-03-30T13:34:25.235Z,9.82
2018-03-30T13:36:54.024Z,10.15
2018-03-30T13:39:22.814Z,9.52
2018-03-30T13:41:51.603Z,8.02
2018-03-30T13:44:20.410Z,9.45
2018-03-30T13:46:49.971Z,10.32
2018-03-30T13:49:18.771Z,14.30
2018-03-30T13:51:55.712Z,10.32
2018-03-30T13:54:24.771Z,9.18
2018-03-30T13:56:53.555Z,9.23
2018-03-30T13:59:23.216Z,9.00
2018-03-30T14:02:08.021Z,10.98
2018-03-30T14:04:39.990Z,13.50
2018-03-30T14:07:30.783Z,8.70
2018-03-30T14:10:04.361Z,8.80
2018-03-30T14:12:36.843Z,13.95
2018-03-30T14:15:05.830Z,10.40
2018-03-30T14:17:45.306Z,7.28
2018-03-30T14:20:29.461Z,9.73
2018-03-30T14:23:08.398Z,8.20
2018-03-30T14:25:40.964Z,8.15
2018-03-30T14:28:14.615Z,10.73
2018-03-30T14:30:44.279Z,8.60
2018-03-30T14:33:17.979Z,6.12
2018-03-30T14:36:07.564Z,8.18
2018-03-30T14:38:45.124Z,7.10
2018-03-30T14:41:13.252Z,5.72
2018-03-30T14:43:46.859Z,8.43
2018-03-30T14:49:39.842Z,5.85
2018-03-30T14:52:26.212Z,8.25
2018-03-30T14:54:58.867Z,7.07
2018-03-30T14:57:32.771Z,5.05
2018-03-30T15:00:20.443Z,5.70
2018-03-30T15:02:50.596Z,6.12
2018-03-30T15:05:34.660Z,6.43
2018-03-30T15:08:06.315Z,7.03
2018-03-30T15:10:54.792Z,6.97
2018-03-30T15:13:24.367Z,5.40
2018-03-30T15:15:55.064Z,5.80
2018-03-30T15:18:26.091Z,5.82
2018-03-30T15:21:08.787Z,6.22
2018-03-30T15:23:37.760Z,6.10
2018-03-30T15:26:05.883Z,5.70
2018-03-30T15:28:35.794Z,6.12
2018-03-30T15:31:10.384Z,7.18
2018-03-30T15:33:48.279Z,5.85
2018-03-30T15:36:19.039Z,6.30
2018-03-30T15:38:47.196Z,8.75
2018-03-30T15:41:15.338Z,9.07
2018-03-30T15:43:45.761Z,6.15
2018-03-30T15:46:30.082Z,6.43
2018-03-30T15:48:58.211Z,5.82
2018-03-30T15:54:24.186Z,7.25
2018-03-30T15:56:54.739Z,8.43
2018-03-30T15:59:23.452Z,7.95
2018-03-30T16:01:52.339Z,5.25
2018-03-30T16:04:21.664Z,8.73
2018-03-30T16:06:49.822Z,6.55
2018-03-30T16:09:21.526Z,10.65
2018-03-30T16:11:50.325Z,7.12
2018-03-30T16:14:19.345Z,9.05
2018-03-30T16:16:47.475Z,8.65
2018-03-30T16:19:15.110Z,9.85
2018-03-30T16:21:42.787Z,8.52
2018-03-30T16:24:10.433Z,7.85
2018-03-30T16:26:38.075Z,9.75
2018-03-30T16:29:06.481Z,7.87
2018-03-30T16:31:33.899Z,8.20
2018-03-30T16:34:01.552Z,10.15
2018-03-30T16:36:29.195Z,8.18
2018-03-30T16:38:56.953Z,8.15
2018-03-30T16:41:24.619Z,10.40
2018-03-30T16:43:52.830Z,8.20
2018-03-30T16:46:20.628Z,9.93
2018-03-30T16:48:49.034Z,7.97
2018-03-30T16:51:16.670Z,8.57
2018-03-30T16:53:44.327Z,8.68
2018-03-30T16:56:12.739Z,7.90
2018-03-30T16:58:40.372Z,9.05
2018-03-30T17:01:08.034Z,13.98
2018-03-30T17:03:37.092Z,8.00
2018-03-30T17:06:04.743Z,10.13
2018-03-30T17:08:32.392Z,12.90
2018-03-30T17:11:00.648Z,12.60
2018-03-30T17:13:28.302Z,8.55
2018-03-30T17:15:56.699Z,8.43
2018-03-30T17:18:24.346Z,9.75
2018-03-30T17:20:51.998Z,11.07
2018-03-30T17:23:19.651Z,11.38
2018-03-30T17:25:48.073Z,10.77
2018-03-30T17:28:15.751Z,13.40
2018-03-30T17:30:44.100Z,12.30
2018-03-30T17:33:11.557Z,16.75
2018-03-30T17:35:39.844Z,12.27
2018-03-30T17:38:07.508Z,15.00
2018-03-30T17:40:35.159Z,20.42
2018-03-30T17:43:02.824Z,19.98
2018-03-30T17:45:31.743Z,18.75
2018-03-30T17:47:59.395Z,18.40
2018-03-30T17:50:27.057Z,17.52
2018-03-30T17:52:54.492Z,15.05
2018-03-30T17:55:22.151Z,17.87
2018-03-30T17:57:49.815Z,14.95
2018-03-30T18:00:18.300Z,14.55
2018-03-30T18:02:46.004Z,21.83
2018-03-30T18:05:13.688Z,13.35
2018-03-30T18:07:41.531Z,12.98
2018-03-30T18:10:09.700Z,14.25
2018-03-30T18:12:37.428Z,16.42
2018-03-30T18:15:05.342Z,10.98
2018-03-30T18:17:33.013Z,13.35
2018-03-30T18:20:00.667Z,15.63
2018-03-30T18:22:28.334Z,17.48
2018-03-30T18:24:55.776Z,14.87
2018-03-30T18:27:23.446Z,14.10
2018-03-30T18:29:53.543Z,12.30
2018-03-30T18:32:21.447Z,13.68
2018-03-30T18:34:49.132Z,14.95
2018-03-30T18:37:17.886Z,15.75
2018-03-30T18:39:45.555Z,13.30
2018-03-30T18:42:13.220Z,20.48
2018-03-30T18:44:41.302Z,15.00
2018-03-30T18:47:08.956Z,15.25
2018-03-30T18:49:36.631Z,12.50
2018-03-30T18:52:04.293Z,13.75
2018-03-30T18:54:31.953Z,11.77
2018-03-30T18:56:59.612Z,12.63
2018-03-30T18:59:27.288Z,11.00
2018-03-30T19:01:54.997Z,11.57
2018-03-30T19:04:23.583Z,13.38
2018-03-30T19:06:51.264Z,14.15
2018-03-30T19:09:18.956Z,18.70
2018-03-30T19:11:46.610Z,17.42
2018-03-30T19:14:14.256Z,21.15
2018-03-30T19:16:41.690Z,14.63
2018-03-30T19:19:09.370Z,14.27
2018-03-30T19:21:37.034Z,16.00
2018-03-30T19:24:04.718Z,14.90
2018-03-30T19:26:35.253Z,13.80
2018-03-30T19:29:02.941Z,11.63
2018-03-30T19:31:32.289Z,14.30
2018-03-30T19:33:59.954Z,18.70
2018-03-30T19:36:27.611Z,15.65
2018-03-30T19:38:55.293Z,20.30
2018-03-30T19:41:22.972Z,17.12
2018-03-30T19:43:50.646Z,12.43
2018-03-30T19:46:18.624Z,15.00
2018-03-30T19:48:47.060Z,17.42
2018-03-30T19:51:14.734Z,13.60
2018-03-30T19:53:42.424Z,15.93
2018-03-30T19:56:10.160Z,15.65
2018-03-30T19:58:37.835Z,16.48
2018-03-30T20:01:05.532Z,14.85
2018-03-30T20:03:33.987Z,16.35
2018-03-30T20:06:01.702Z,18.95
2018-03-30T20:08:29.372Z,16.87
2018-03-30T20:10:57.716Z,17.30
2018-03-30T20:13:27.241Z,21.15
2018-03-30T20:15:54.924Z,18.83
2018-03-30T20:18:22.606Z,18.60
2018-03-30T20:20:50.292Z,16.05
2018-03-30T20:23:17.990Z,19.80
2018-03-30T20:25:45.659Z,19.90
2018-03-30T20:28:13.335Z,18.48
2018-03-30T20:30:40.991Z,18.48
2018-03-30T20:33:08.659Z,19.73
2018-03-30T20:35:36.314Z,22.75
2018-03-30T20:38:03.975Z,19.20
2018-03-30T20:40:31.636Z,18.73
2018-03-30T20:42:59.308Z,17.20
2018-03-30T20:45:27.684Z,23.17
2018-03-30T20:47:58.201Z,20.30
2018-03-30T20:50:26.641Z,27.58
2018-03-30T21:35:39.666Z,20.15
2018-03-30T21:38:07.315Z,19.50
2018-03-30T21:40:35.200Z,24.48
2018-03-30T21:43:03.046Z,22.25
2018-03-30T21:45:30.700Z,23.87
2018-03-30T21:47:58.355Z,23.42
2018-03-30T21:50:26.005Z,20.62
2018-03-30T21:52:54.116Z,24.45
2018-03-30T21:55:21.766Z,22.30
2018-03-30T21:57:49.439Z,20.70
2018-03-30T22:00:17.139Z,20.52
2018-03-30T22:02:44.836Z,19.50
2018-03-30T22:05:12.501Z,19.85
2018-03-30T22:07:40.163Z,20.40
2018-03-30T22:10:07.827Z,18.15
2018-03-30T22:12:35.500Z,20.40
2018-03-30T22:15:03.171Z,21.85
2018-03-30T22:17:30.850Z,21.27
2018-03-30T22:19:58.512Z,23.58
2018-03-30T22:22:26.776Z,18.12
2018-03-30T22:24:55.404Z,19.25
2018-03-30T22:27:23.126Z,18.70
2018-03-30T22:29:50.944Z,21.00
2018-03-30T22:32:18.603Z,20.85
2018-03-30T22:34:47.287Z,18.30
2018-03-30T22:37:14.964Z,20.27
2018-03-30T22:39:43.375Z,21.65
2018-03-30T22:42:11.040Z,22.85
2018-03-30T22:44:38.730Z,21.33
2018-03-30T22:47:06.395Z,22.52
2018-03-30T22:49:34.059Z,22.37
2018-03-30T22:52:01.732Z,23.50
2018-03-30T22:54:29.911Z,26.25
2018-03-30T22:56:57.576Z,30.52
2018-03-30T22:59:25.250Z,23.45
2018-03-30T23:01:52.890Z,22.17
2018-03-30T23:04:20.588Z,22.48
2018-03-30T23:06:49.064Z,26.55
2018-03-30T23:09:16.516Z,24.05
2018-03-30T23:11:44.170Z,21.98
2018-03-30T23:14:11.827Z,24.95
2018-03-30T23:16:40.469Z,23.02
2018-03-30T23:19:08.146Z,23.42
2018-03-30T23:21:35.820Z,21.92
2018-03-30T23:24:03.239Z,19.90
2018-03-30T23:26:30.910Z,24.05
2018-03-30T23:28:58.565Z,25.92
2018-03-30T23:31:26.045Z,24.45
2018-03-30T23:33:53.703Z,21.02
2018-03-30T23:36:21.358Z,25.62
2018-03-30T23:38:49.959Z,26.83
2018-03-30T23:41:17.626Z,22.13
2018-03-30T23:43:45.303Z,23.00
2018-03-30T23:46:12.969Z,24.55
2018-03-30T23:48:40.388Z,22.10
2018-03-30T23:51:08.049Z,20.70
2018-03-30T23:53:35.758Z,24.33
2018-03-30T23:56:04.197Z,26.92
2018-03-30T23:58:32.521Z,25.73
